createdAt,value
2023-03-20T00:01:35.864Z,7.15
2023-03-20T00:04:02.927Z,7.82
2023-03-20T00:06:29.876Z,6.50
2023-03-20T00:08:57.612Z,7.25
2023-03-20T00:11:30.535Z,6.32
2023-03-20T00:14:00.310Z,7.47
2023-03-20T00:16:35.649Z,6.97
2023-03-20T00:19:03.360Z,7.25
2023-03-20T00:21:31.590Z,7.18
2023-03-20T00:24:00.747Z,8.65
2023-03-20T00:26:33.380Z,7.60
2023-03-20T00:29:01.091Z,9.88
2023-03-20T00:31:34.450Z,6.80
2023-03-20T00:34:04.252Z,8.80
2023-03-20T00:36:31.268Z,15.10
2023-03-20T00:38:58.223Z,8.65
2023-03-20T00:41:38.590Z,9.20
2023-03-20T00:44:23.374Z,7.88
2023-03-20T00:49:22.867Z,10.35
2023-03-20T00:51:49.814Z,10.32
2023-03-20T00:54:17.432Z,10.20
2023-03-20T00:56:51.765Z,12.55
2023-03-20T00:59:23.774Z,14.68
2023-03-20T01:01:51.089Z,11.43
2023-03-20T01:04:20.506Z,16.15
2023-03-20T01:06:47.837Z,12.82
2023-03-20T01:09:14.807Z,16.08
2023-03-20T01:11:42.782Z,17.55
2023-03-20T01:14:14.966Z,19.33
2023-03-20T01:16:42.526Z,19.63
2023-03-20T01:19:14.275Z,15.75
2023-03-20T01:21:42.316Z,15.00
2023-03-20T01:24:09.404Z,18.77
2023-03-20T01:26:44.104Z,20.25
2023-03-20T01:29:25.845Z,11.93
2023-03-20T01:31:53.583Z,12.57
2023-03-20T01:34:21.215Z,11.40
2023-03-20T01:36:54.276Z,17.33
2023-03-20T01:39:24.394Z,7.25
2023-03-20T01:41:52.864Z,11.85
2023-03-20T01:44:23.776Z,8.38
2023-03-20T01:46:54.106Z,7.35
2023-03-20T01:49:21.488Z,12.60
2023-03-20T01:51:49.860Z,8.00
2023-03-20T01:54:28.500Z,6.38
2023-03-20T01:57:09.918Z,12.27
2023-03-20T01:59:49.679Z,7.28
2023-03-20T02:02:21.541Z,6.88
2023-03-20T02:04:54.206Z,9.13
2023-03-20T02:07:23.357Z,5.82
2023-03-20T02:09:51.243Z,10.70
2023-03-20T02:12:19.481Z,17.88
2023-03-20T02:14:47.575Z,4.35
2023-03-20T02:17:15.657Z,9.80
2023-03-20T02:19:57.508Z,8.50
2023-03-20T02:23:02.006Z,8.63
2023-03-20T02:25:34.635Z,7.67
2023-03-20T02:28:01.486Z,5.72
2023-03-20T02:31:02.352Z,7.68
2023-03-20T02:33:55.698Z,9.10
2023-03-20T02:36:58.167Z,9.23
2023-03-20T02:39:49.835Z,9.27
2023-03-20T02:42:19.768Z,11.32
2023-03-20T02:44:57.287Z,7.07
2023-03-20T02:47:37.915Z,12.80
2023-03-20T02:50:23.772Z,9.75
2023-03-20T02:53:06.676Z,11.98
2023-03-20T02:55:48.014Z,8.98
2023-03-20T02:58:23.695Z,7.97
2023-03-20T03:00:58.405Z,8.73
2023-03-20T03:03:34.320Z,13.88
2023-03-20T03:06:23.059Z,9.30
2023-03-20T03:08:55.570Z,11.60
2023-03-20T03:11:22.467Z,19.13
2023-03-20T03:13:54.004Z,12.95
2023-03-20T03:16:35.361Z,12.43
2023-03-20T03:19:13.886Z,13.23
2023-03-20T03:21:41.762Z,19.05
2023-03-20T03:24:43.214Z,12.98
2023-03-20T03:27:26.157Z,15.95
2023-03-20T03:29:58.362Z,16.83
2023-03-20T03:32:33.218Z,13.90
2023-03-20T03:35:02.287Z,13.77
2023-03-20T03:37:34.013Z,18.55
2023-03-20T03:40:11.929Z,18.80
2023-03-20T03:42:44.353Z,14.30
2023-03-20T03:45:22.710Z,16.75
2023-03-20T03:47:54.676Z,14.60
2023-03-20T03:50:37.370Z,16.02
2023-03-20T03:53:09.874Z,13.57
2023-03-20T03:55:41.861Z,12.00
2023-03-20T03:58:21.526Z,17.92
2023-03-20T04:00:51.943Z,15.57
2023-03-20T04:03:21.478Z,29.23
2023-03-20T04:05:48.874Z,21.40
2023-03-20T04:08:16.561Z,16.67
2023-03-20T04:10:43.532Z,20.35
2023-03-20T04:13:11.766Z,11.60
2023-03-20T04:15:38.621Z,16.15
2023-03-20T04:18:05.772Z,16.08
2023-03-20T04:20:32.628Z,14.80
2023-03-20T04:22:59.659Z,15.68
2023-03-20T04:25:26.783Z,22.23
2023-03-20T04:27:53.935Z,13.35
2023-03-20T04:30:20.830Z,16.52
2023-03-20T04:32:47.711Z,20.90
2023-03-20T04:35:14.712Z,19.08
2023-03-20T04:37:43.031Z,14.32
2023-03-20T04:40:10.684Z,8.68
2023-03-20T04:42:37.501Z,16.48
2023-03-20T04:45:05.148Z,10.75
2023-03-20T04:47:32.053Z,11.75
2023-03-20T04:49:58.904Z,8.27
2023-03-20T04:52:25.941Z,8.05
2023-03-20T04:54:52.836Z,24.73
2023-03-20T04:57:19.637Z,16.75
2023-03-20T04:59:46.512Z,8.98
2023-03-20T05:02:15.035Z,11.60
2023-03-20T05:04:45.055Z,12.25
2023-03-20T05:07:11.888Z,10.38
2023-03-20T05:09:38.717Z,10.18
2023-03-20T05:12:06.170Z,6.25
2023-03-20T05:14:32.974Z,7.85
2023-03-20T05:16:59.917Z,11.80
2023-03-20T05:19:27.489Z,8.77
2023-03-20T05:21:54.266Z,15.52
2023-03-20T05:24:22.506Z,11.57
2023-03-20T05:26:50.096Z,8.48
2023-03-20T05:29:16.959Z,13.93
2023-03-20T05:31:43.805Z,12.38
2023-03-20T05:34:10.609Z,14.05
2023-03-20T05:36:37.510Z,11.40
2023-03-20T05:39:04.626Z,16.50
2023-03-20T05:41:31.472Z,11.00
2023-03-20T05:43:58.428Z,14.85
2023-03-20T05:46:26.262Z,8.65
2023-03-20T05:48:53.149Z,10.70
2023-03-20T05:51:20.386Z,10.93
2023-03-20T05:53:47.325Z,15.10
2023-03-20T05:56:14.290Z,13.20
2023-03-20T05:58:42.318Z,11.55
2023-03-20T06:01:09.161Z,18.27
2023-03-20T06:03:36.940Z,10.80
2023-03-20T06:06:04.568Z,14.15
2023-03-20T06:08:31.552Z,12.88
2023-03-20T06:10:58.399Z,10.88
2023-03-20T06:13:25.369Z,11.55
2023-03-20T06:15:52.521Z,11.07
2023-03-20T06:18:19.374Z,14.65
2023-03-20T06:20:46.190Z,9.50
2023-03-20T06:23:13.656Z,14.30
2023-03-20T06:25:40.643Z,9.77
2023-03-20T06:28:07.469Z,11.55
2023-03-20T06:30:34.336Z,14.73
2023-03-20T06:33:01.256Z,12.88
2023-03-20T06:35:31.188Z,17.55
2023-03-20T06:37:58.548Z,10.32
2023-03-20T06:40:27.352Z,15.82
2023-03-20T06:42:54.660Z,9.68
2023-03-20T06:45:22.596Z,13.38
2023-03-20T06:47:49.450Z,7.82
2023-03-20T06:50:16.612Z,10.80
2023-03-20T06:52:43.413Z,11.02
2023-03-20T06:55:10.477Z,6.93
2023-03-20T06:57:37.304Z,7.78
2023-03-20T07:00:06.565Z,10.77
2023-03-20T07:02:33.420Z,10.13
2023-03-20T07:05:00.328Z,9.15
2023-03-20T07:07:27.196Z,18.13
2023-03-20T07:09:54.122Z,11.23
2023-03-20T07:12:24.030Z,8.98
2023-03-20T07:14:51.014Z,8.98
2023-03-20T07:17:18.022Z,9.77
2023-03-20T07:19:44.927Z,11.50
2023-03-20T07:22:22.703Z,8.25
2023-03-20T07:24:50.239Z,6.25
2023-03-20T07:27:18.191Z,5.97
2023-03-20T07:29:45.543Z,14.57
2023-03-20T07:32:12.504Z,9.07
2023-03-20T07:34:39.349Z,8.25
2023-03-20T07:37:06.396Z,11.43
2023-03-20T07:39:33.295Z,12.82
2023-03-20T07:42:00.331Z,10.70
2023-03-20T07:44:27.340Z,8.30
2023-03-20T07:46:54.265Z,7.68
2023-03-20T07:49:21.711Z,9.90
2023-03-20T07:51:51.230Z,11.43
2023-03-20T07:54:18.415Z,7.13
2023-03-20T07:56:53.824Z,13.00
2023-03-20T07:59:20.705Z,9.40
2023-03-20T08:01:47.655Z,8.93
2023-03-20T08:04:14.542Z,10.45
2023-03-20T08:06:43.577Z,8.80
2023-03-20T08:09:10.641Z,13.98
2023-03-20T08:11:37.460Z,10.52
2023-03-20T08:14:04.292Z,7.32
2023-03-20T08:16:31.114Z,8.52
2023-03-20T08:19:01.535Z,9.07
2023-03-20T08:21:29.644Z,7.65
2023-03-20T08:23:59.958Z,10.57
2023-03-20T08:26:26.864Z,8.57
2023-03-20T08:28:53.815Z,8.90
2023-03-20T08:31:20.734Z,12.07
2023-03-20T08:33:48.051Z,9.55
2023-03-20T08:36:17.253Z,11.40
2023-03-20T08:38:44.185Z,14.02
2023-03-20T08:41:11.194Z,34.38
2023-03-20T08:43:38.154Z,10.63
2023-03-20T08:46:06.312Z,11.70
2023-03-20T08:48:33.333Z,18.23
2023-03-20T08:51:00.787Z,6.45
2023-03-20T08:53:27.630Z,8.40
2023-03-20T08:55:55.133Z,17.10
2023-03-20T08:58:22.966Z,9.00
2023-03-20T09:00:50.011Z,7.68
2023-03-20T09:03:20.019Z,11.32
2023-03-20T09:05:48.487Z,13.30
2023-03-20T09:08:15.813Z,13.30
2023-03-20T09:10:42.765Z,9.73
2023-03-20T09:13:25.679Z,12.00
2023-03-20T09:15:53.689Z,6.47
2023-03-20T09:18:21.530Z,7.20
2023-03-20T09:20:49.006Z,10.05
2023-03-20T09:23:16.080Z,11.88
2023-03-20T09:25:43.529Z,9.93
2023-03-20T09:28:10.391Z,6.55
2023-03-20T09:30:38.535Z,6.32
2023-03-20T09:33:05.968Z,12.43
2023-03-20T09:35:32.943Z,12.23
2023-03-20T09:37:59.911Z,8.48
2023-03-20T09:40:31.650Z,8.77
2023-03-20T09:43:27.023Z,10.77
2023-03-20T09:46:16.803Z,11.70
2023-03-20T09:48:54.739Z,7.47
2023-03-20T09:51:34.090Z,5.30
2023-03-20T09:54:24.213Z,19.75
2023-03-20T09:56:52.652Z,8.45
2023-03-20T09:59:21.327Z,8.40
2023-03-20T10:01:52.720Z,7.97
2023-03-20T10:04:19.903Z,9.07
2023-03-20T10:06:47.181Z,8.43
2023-03-20T10:09:17.966Z,9.15
2023-03-20T10:12:13.945Z,8.63
2023-03-20T10:15:03.571Z,9.48
2023-03-20T10:17:43.096Z,12.18
2023-03-20T10:20:51.235Z,9.32
2023-03-20T10:23:25.896Z,6.75
2023-03-20T10:26:07.959Z,13.68
2023-03-20T10:28:39.580Z,15.30
2023-03-20T10:31:15.396Z,6.82
2023-03-20T10:34:04.272Z,10.85
2023-03-20T10:36:42.169Z,7.45
2023-03-20T10:39:12.842Z,6.93
2023-03-20T10:41:43.146Z,12.07
2023-03-20T10:44:37.605Z,10.40
2023-03-20T10:47:08.315Z,5.30
2023-03-20T10:49:58.547Z,9.65
2023-03-20T10:52:35.562Z,6.78
2023-03-20T10:55:15.899Z,14.23
2023-03-20T10:57:57.780Z,10.73
2023-03-20T11:00:26.372Z,8.23
2023-03-20T11:02:53.175Z,9.15
2023-03-20T11:05:25.604Z,7.47
2023-03-20T11:08:02.202Z,9.13
2023-03-20T11:10:32.425Z,7.60
2023-03-20T11:13:15.532Z,6.60
2023-03-20T11:15:43.130Z,11.10
2023-03-20T11:18:15.313Z,9.20
2023-03-20T11:20:47.025Z,8.75
2023-03-20T11:23:32.603Z,11.15
2023-03-20T11:26:11.638Z,9.20
2023-03-20T11:28:40.883Z,16.33
2023-03-20T11:31:14.093Z,8.85
2023-03-20T11:33:44.876Z,7.25
2023-03-20T11:36:26.622Z,11.15
2023-03-20T11:39:22.296Z,8.48
2023-03-20T11:41:57.551Z,8.15
2023-03-20T11:44:29.986Z,11.18
2023-03-20T11:47:14.714Z,10.52
2023-03-20T11:52:21.960Z,9.77
2023-03-20T11:54:52.409Z,7.85
2023-03-20T11:57:37.793Z,9.82
2023-03-20T12:00:20.720Z,7.40
2023-03-20T12:02:47.767Z,13.40
2023-03-20T12:05:36.481Z,6.38
2023-03-20T12:08:12.920Z,7.35
2023-03-20T12:10:43.601Z,11.23
2023-03-20T12:13:26.212Z,10.60
2023-03-20T12:15:58.289Z,11.80
2023-03-20T12:18:33.015Z,9.07
2023-03-20T12:21:15.159Z,10.40
2023-03-20T12:24:31.287Z,6.50
2023-03-20T12:27:17.033Z,9.15
2023-03-20T12:29:50.152Z,7.85
2023-03-20T12:32:36.685Z,8.73
2023-03-20T12:35:16.771Z,10.40
2023-03-20T12:37:43.770Z,5.25
2023-03-20T12:40:18.783Z,4.15
2023-03-20T12:43:03.610Z,11.05
2023-03-20T12:48:37.669Z,8.55
2023-03-20T12:51:41.101Z,4.22
2023-03-20T12:54:19.618Z,3.95
2023-03-20T12:57:09.575Z,6.57
2023-03-20T12:59:43.889Z,4.63
2023-03-20T13:02:46.546Z,11.70
2023-03-20T13:05:27.158Z,6.30
2023-03-20T13:08:17.981Z,9.55
2023-03-20T13:11:07.135Z,5.43
2023-03-20T13:13:39.172Z,3.17
2023-03-20T13:16:29.519Z,9.50
2023-03-20T13:19:04.693Z,6.50
2023-03-20T13:21:57.309Z,2.67
2023-03-20T13:24:59.630Z,6.22
2023-03-20T13:27:42.998Z,7.80
2023-03-20T13:30:50.404Z,9.52
2023-03-20T13:33:32.462Z,3.40
2023-03-20T13:36:27.991Z,3.67
2023-03-20T13:39:22.728Z,8.38
2023-03-20T13:41:50.818Z,6.72
2023-03-20T13:44:21.269Z,5.63
2023-03-20T13:46:52.560Z,4.40
2023-03-20T13:49:43.778Z,4.20
2023-03-20T13:52:28.937Z,2.70
2023-03-20T13:55:37.224Z,9.77
2023-03-20T13:58:26.155Z,6.47
2023-03-20T14:01:05.710Z,7.75
2023-03-20T14:03:43.591Z,5.65
2023-03-20T14:06:39.682Z,6.20
2023-03-20T14:09:35.758Z,5.43
2023-03-20T14:12:11.681Z,6.50
2023-03-20T14:14:57.501Z,3.78
2023-03-20T14:17:32.336Z,5.18
2023-03-20T14:20:12.600Z,4.60
2023-03-20T14:22:43.438Z,3.75
2023-03-20T14:25:19.447Z,6.40
2023-03-20T14:28:12.814Z,11.48
2023-03-20T14:30:41.563Z,11.43
2023-03-20T14:33:26.868Z,4.13
2023-03-20T14:36:12.105Z,14.70
2023-03-20T14:38:58.192Z,5.93
2023-03-20T14:41:43.933Z,3.70
2023-03-20T14:44:55.802Z,6.47
2023-03-20T14:47:42.233Z,2.65
2023-03-20T14:50:24.065Z,4.30
2023-03-20T14:53:13.046Z,1.80
2023-03-20T14:55:52.131Z,6.53
2023-03-20T14:58:46.164Z,5.60
2023-03-20T15:01:23.967Z,2.60
2023-03-20T15:04:01.122Z,5.10
2023-03-20T15:06:29.115Z,9.43
2023-03-20T15:09:06.854Z,8.25
2023-03-20T15:11:34.851Z,5.30
2023-03-20T15:14:04.569Z,5.10
2023-03-20T15:16:34.377Z,17.35
2023-03-20T15:19:01.483Z,2.58
2023-03-20T15:21:31.181Z,5.25
2023-03-20T15:23:58.860Z,6.35
2023-03-20T15:26:28.063Z,8.50
2023-03-20T15:29:08.806Z,8.57
2023-03-20T15:31:38.845Z,7.80
2023-03-20T15:34:13.724Z,14.05
2023-03-20T15:36:42.153Z,10.85
2023-03-20T15:39:25.002Z,4.47
2023-03-20T15:42:19.915Z,10.20
2023-03-20T15:44:48.996Z,10.75
2023-03-20T15:47:22.101Z,6.70
2023-03-20T15:49:54.887Z,5.35
2023-03-20T15:52:27.869Z,8.68
2023-03-20T15:54:59.976Z,8.85
2023-03-20T15:57:35.781Z,11.93
2023-03-20T16:00:30.568Z,11.43
2023-03-20T16:02:59.421Z,10.73
2023-03-20T16:05:28.997Z,9.38
2023-03-20T16:07:56.399Z,11.07
2023-03-20T16:10:38.213Z,9.63
2023-03-20T16:13:10.191Z,7.57
2023-03-20T16:15:37.324Z,5.40
2023-03-20T16:18:06.678Z,9.38
2023-03-20T16:20:39.129Z,10.75
2023-03-20T16:23:08.455Z,5.97
2023-03-20T16:25:37.208Z,5.30
2023-03-20T16:28:08.750Z,11.85
2023-03-20T16:30:36.362Z,12.63
2023-03-20T16:33:15.483Z,10.07
2023-03-20T16:35:50.477Z,11.80
2023-03-20T16:38:35.849Z,9.90
2023-03-20T16:41:22.128Z,9.43
2023-03-20T16:43:52.420Z,10.80
2023-03-20T16:46:24.557Z,9.20
2023-03-20T16:48:53.215Z,10.57
2023-03-20T16:51:29.320Z,15.73
2023-03-20T16:54:04.037Z,11.48
2023-03-20T16:56:39.411Z,11.13
2023-03-20T16:59:11.648Z,20.27
2023-03-20T17:01:43.292Z,9.23
2023-03-20T17:04:22.609Z,8.60
2023-03-20T17:06:55.018Z,10.25
2023-03-20T17:09:33.384Z,12.27
2023-03-20T17:12:13.572Z,11.05
2023-03-20T17:14:45.200Z,12.70
2023-03-20T17:17:19.319Z,12.00
2023-03-20T17:22:19.780Z,9.27
2023-03-20T17:24:46.689Z,12.93
2023-03-20T17:27:14.273Z,10.30
2023-03-20T17:29:42.138Z,12.90
2023-03-20T17:32:13.594Z,10.30
2023-03-20T17:34:40.562Z,16.00
2023-03-20T17:37:13.745Z,17.00
2023-03-20T17:39:41.193Z,18.40
2023-03-20T17:42:19.840Z,10.88
2023-03-20T17:44:48.218Z,13.48
2023-03-20T17:47:17.198Z,10.02
2023-03-20T17:49:44.856Z,10.50
2023-03-20T17:52:19.628Z,13.75
2023-03-20T17:54:47.262Z,12.68
2023-03-20T17:57:26.808Z,18.73
2023-03-20T17:59:53.618Z,18.48
2023-03-20T18:02:20.716Z,21.63
2023-03-20T18:04:47.972Z,13.98
2023-03-20T18:07:16.942Z,17.80
2023-03-20T18:09:45.031Z,13.73
2023-03-20T18:12:17.011Z,11.30
2023-03-20T18:14:45.053Z,15.00
2023-03-20T18:17:13.534Z,15.02
2023-03-20T18:19:40.840Z,17.75
2023-03-20T18:22:08.501Z,24.73
2023-03-20T18:24:36.484Z,14.90
2023-03-20T18:27:03.736Z,20.83
2023-03-20T18:29:30.650Z,16.17
2023-03-20T18:31:57.510Z,15.50
2023-03-20T18:34:24.539Z,15.55
2023-03-20T18:36:51.462Z,13.48
2023-03-20T18:39:19.661Z,14.50
2023-03-20T18:41:46.693Z,16.75
2023-03-20T18:44:13.834Z,20.52
2023-03-20T18:46:43.891Z,22.13
2023-03-20T18:49:16.143Z,23.25
2023-03-20T18:51:43.757Z,19.00
2023-03-20T18:54:11.268Z,21.60
2023-03-20T18:56:38.277Z,18.05
2023-03-20T18:59:08.177Z,22.08
2023-03-20T19:01:35.995Z,21.15
2023-03-20T19:04:03.194Z,19.85
2023-03-20T19:06:32.333Z,21.65
2023-03-20T19:09:02.696Z,19.40
2023-03-20T19:11:32.181Z,22.60
2023-03-20T19:13:59.016Z,19.33
2023-03-20T19:16:31.961Z,22.23
2023-03-20T19:19:01.501Z,23.85
2023-03-20T19:21:30.010Z,26.40
2023-03-20T19:24:02.247Z,21.40
2023-03-20T19:26:30.759Z,16.27
2023-03-20T19:28:59.123Z,25.67
2023-03-20T19:31:26.409Z,18.95
2023-03-20T19:33:54.719Z,22.15
2023-03-20T19:36:27.448Z,18.77
2023-03-20T19:38:56.051Z,17.38
2023-03-20T19:41:23.451Z,22.15
2023-03-20T19:43:54.179Z,21.75
2023-03-20T19:46:38.525Z,20.98
2023-03-20T19:49:07.004Z,25.67
2023-03-20T19:51:34.130Z,21.90
2023-03-20T19:54:01.045Z,27.42
2023-03-20T19:56:27.852Z,24.50
2023-03-20T19:58:54.932Z,33.40
2023-03-20T20:01:27.097Z,24.00
2023-03-20T20:03:54.977Z,24.38
2023-03-20T20:06:27.880Z,26.25
2023-03-20T20:08:57.807Z,25.40
2023-03-20T20:11:24.920Z,23.58
2023-03-20T20:14:05.635Z,31.50
2023-03-20T20:16:43.112Z,23.20
2023-03-20T20:19:11.392Z,23.17
2023-03-20T20:24:25.882Z,27.60
2023-03-20T20:27:03.423Z,28.67
2023-03-20T20:29:41.586Z,26.40
2023-03-20T20:32:08.629Z,25.33
2023-03-20T20:40:14.353Z,20.60
2023-03-20T20:42:43.180Z,27.58
2023-03-20T20:45:14.683Z,29.33
2023-03-20T20:47:43.896Z,26.52
2023-03-20T20:50:12.331Z,26.33
2023-03-20T20:52:42.895Z,26.00
2023-03-20T20:55:23.035Z,30.42
2023-03-20T20:57:52.430Z,30.77
2023-03-20T21:00:27.425Z,22.80
2023-03-20T21:03:00.975Z,28.95
2023-03-20T21:05:28.347Z,31.83
2023-03-20T21:07:55.412Z,23.02
2023-03-20T21:10:22.469Z,26.05
2023-03-20T21:12:59.103Z,24.75
2023-03-20T21:15:27.313Z,27.85
2023-03-20T21:18:01.253Z,37.05
2023-03-20T21:20:32.252Z,25.77
2023-03-20T21:22:59.543Z,33.67
2023-03-20T21:25:39.048Z,36.53
2023-03-20T21:28:07.446Z,36.65
2023-03-20T21:30:34.825Z,28.92
2023-03-20T21:33:01.879Z,37.63
2023-03-20T21:35:29.049Z,35.47
2023-03-20T21:40:47.243Z,29.17
2023-03-20T21:43:16.050Z,38.30
2023-03-20T21:46:25.015Z,35.88
2023-03-20T21:49:12.574Z,30.50
2023-03-20T21:52:29.057Z,41.33
2023-03-20T22:00:14.973Z,37.67
2023-03-20T22:02:30.165Z,29.55
2023-03-20T22:08:33.493Z,25.23
2023-03-20T22:11:38.527Z,26.83
2023-03-20T22:17:25.717Z,26.25
2023-03-20T22:36:37.970Z,26.92
2023-03-20T22:39:14.053Z,29.58
2023-03-20T22:42:12.368Z,25.63
2023-03-20T22:44:50.629Z,33.42
2023-03-20T22:46:58.607Z,32.50
2023-03-20T22:49:25.815Z,29.02
2023-03-20T22:52:23.030Z,36.22
2023-03-20T22:54:41.432Z,24.52
2023-03-20T22:57:08.437Z,29.73
2023-03-20T22:59:36.047Z,28.65
2023-03-20T23:02:03.018Z,25.15
2023-03-20T23:04:30.301Z,33.22
2023-03-20T23:07:00.263Z,31.95
2023-03-20T23:09:27.429Z,36.40
2023-03-20T23:11:54.594Z,35.40
2023-03-20T23:14:22.569Z,30.23
2023-03-20T23:16:50.852Z,29.63
2023-03-20T23:19:17.723Z,32.75
2023-03-20T23:21:44.721Z,32.35
2023-03-20T23:24:11.646Z,36.03
2023-03-20T23:26:38.545Z,30.48
2023-03-20T23:29:05.825Z,25.98
2023-03-20T23:31:32.782Z,31.58
2023-03-20T23:33:59.743Z,30.98
2023-03-20T23:36:42.852Z,32.20
2023-03-20T23:39:12.910Z,30.33
2023-03-20T23:42:05.068Z,29.88
2023-03-20T23:44:27.618Z,29.85
2023-03-20T23:46:55.448Z,25.95
2023-03-20T23:49:22.391Z,29.80
2023-03-20T23:51:49.250Z,23.77
2023-03-20T23:54:16.255Z,30.38
2023-03-20T23:56:43.289Z,36.80
2023-03-20T23:59:23.004Z,26.50
